createdAt,value
2022-10-12T00:02:04.146Z,14.18
2022-10-12T00:04:51.734Z,12.88
2022-10-12T00:07:19.851Z,12.70
2022-10-12T00:09:48.515Z,12.75
2022-10-12T00:12:16.976Z,12.98
2022-10-12T00:14:45.054Z,12.95
2022-10-12T00:17:14.185Z,13.05
2022-10-12T00:19:42.235Z,13.13
2022-10-12T00:22:11.614Z,12.52
2022-10-12T00:24:42.836Z,14.13
2022-10-12T00:27:11.141Z,15.43
2022-10-12T00:29:39.288Z,13.32
2022-10-12T00:32:07.294Z,13.80
2022-10-12T00:34:35.852Z,13.70
2022-10-12T00:37:03.882Z,16.25
2022-10-12T00:39:33.448Z,14.90
2022-10-12T00:42:01.675Z,13.82
2022-10-12T00:44:42.374Z,13.43
2022-10-12T00:47:26.749Z,14.75
2022-10-12T00:50:00.868Z,12.95
2022-10-12T00:52:34.945Z,13.20
2022-10-12T00:55:06.374Z,16.83
2022-10-12T00:57:35.077Z,16.05
2022-10-12T01:00:07.903Z,12.93
2022-10-12T01:02:37.353Z,15.48
2022-10-12T01:05:07.166Z,13.70
2022-10-12T01:07:41.122Z,14.00
2022-10-12T01:10:11.444Z,15.70
2022-10-12T01:12:42.174Z,13.70
2022-10-12T01:15:11.628Z,13.65
2022-10-12T01:17:52.263Z,15.10
2022-10-12T01:20:44.864Z,13.55
2022-10-12T01:23:47.702Z,14.20
2022-10-12T01:26:57.478Z,14.25
2022-10-12T01:29:52.536Z,13.90
2022-10-12T01:32:27.163Z,14.68
2022-10-12T01:35:02.005Z,13.10
2022-10-12T01:37:37.372Z,15.38
2022-10-12T01:40:15.849Z,14.90
2022-10-12T01:42:45.771Z,13.80
2022-10-12T01:45:17.354Z,13.90
2022-10-12T01:47:52.506Z,13.05
2022-10-12T01:50:25.721Z,15.25
2022-10-12T01:53:02.811Z,15.25
2022-10-12T01:55:40.075Z,14.60
2022-10-12T01:58:35.824Z,14.73
2022-10-12T02:01:14.241Z,14.68
2022-10-12T02:03:49.758Z,13.05
2022-10-12T02:06:20.455Z,16.35
2022-10-12T02:08:56.903Z,15.32
2022-10-12T02:11:26.967Z,15.48
2022-10-12T02:13:59.411Z,14.60
2022-10-12T02:16:34.441Z,13.25
2022-10-12T02:19:06.129Z,12.85
2022-10-12T02:21:36.183Z,13.63
2022-10-12T02:24:07.359Z,14.85
2022-10-12T02:26:38.728Z,15.07
2022-10-12T02:29:10.896Z,12.45
2022-10-12T02:31:46.798Z,14.20
2022-10-12T02:34:19.418Z,12.32
2022-10-12T02:36:51.894Z,13.90
2022-10-12T02:39:26.425Z,16.33
2022-10-12T02:41:59.181Z,17.70
2022-10-12T02:44:31.770Z,15.73
2022-10-12T02:47:02.452Z,17.10
2022-10-12T02:49:34.093Z,16.33
2022-10-12T02:52:03.578Z,16.80
2022-10-12T02:54:31.987Z,15.68
2022-10-12T02:57:01.647Z,17.75
2022-10-12T02:59:29.936Z,16.02
2022-10-12T03:01:58.047Z,19.00
2022-10-12T03:04:26.220Z,16.20
2022-10-12T03:06:55.713Z,15.98
2022-10-12T03:09:23.864Z,15.43
2022-10-12T03:11:52.011Z,14.15
2022-10-12T03:14:21.202Z,14.10
2022-10-12T03:16:49.769Z,14.60
2022-10-12T03:19:18.149Z,14.18
2022-10-12T03:21:46.276Z,15.25
2022-10-12T03:24:15.825Z,14.35
2022-10-12T03:26:43.886Z,15.45
2022-10-12T03:29:11.995Z,15.90
2022-10-12T03:31:40.157Z,15.90
2022-10-12T03:34:08.640Z,15.15
2022-10-12T03:36:36.788Z,15.25
2022-10-12T03:39:05.270Z,15.07
2022-10-12T03:41:34.720Z,16.17
2022-10-12T03:44:02.873Z,15.68
2022-10-12T03:46:31.137Z,14.73
2022-10-12T03:48:59.231Z,15.07
2022-10-12T03:51:27.510Z,16.58
2022-10-12T03:53:55.536Z,17.20
2022-10-12T03:56:23.780Z,16.08
2022-10-12T03:58:53.347Z,16.45
2022-10-12T04:01:21.493Z,15.45
2022-10-12T04:03:49.731Z,15.63
2022-10-12T04:06:17.971Z,15.23
2022-10-12T04:08:50.594Z,15.32
2022-10-12T04:11:20.276Z,15.77
2022-10-12T04:13:48.639Z,15.82
2022-10-12T04:16:18.016Z,17.52
2022-10-12T04:18:46.255Z,17.33
2022-10-12T04:21:16.223Z,16.38
2022-10-12T04:23:44.789Z,18.55
2022-10-12T04:26:12.891Z,19.77
2022-10-12T04:29:07.214Z,16.88
2022-10-12T04:31:36.655Z,17.33
2022-10-12T04:34:04.675Z,16.55
2022-10-12T04:36:41.790Z,17.92
2022-10-12T04:39:09.966Z,19.00
2022-10-12T04:41:39.590Z,17.33
2022-10-12T04:44:08.350Z,18.50
2022-10-12T04:46:37.773Z,20.83
2022-10-12T04:49:05.836Z,21.33
2022-10-12T04:51:33.997Z,22.58
2022-10-12T04:54:02.063Z,21.55
2022-10-12T04:56:30.263Z,21.30
2022-10-12T04:58:58.354Z,19.35
2022-10-12T05:01:28.671Z,21.35
2022-10-12T05:03:58.234Z,19.35
2022-10-12T05:06:26.359Z,20.48
2022-10-12T05:08:54.479Z,20.73
2022-10-12T05:11:22.587Z,23.33
2022-10-12T05:13:50.839Z,23.67
2022-10-12T05:16:18.984Z,20.02
2022-10-12T05:18:47.053Z,19.85
2022-10-12T05:21:16.898Z,20.27
2022-10-12T05:23:45.008Z,20.58
2022-10-12T05:26:13.114Z,23.42
2022-10-12T05:28:41.518Z,21.48
2022-10-12T05:31:09.876Z,22.90
2022-10-12T05:33:37.970Z,21.83
2022-10-12T05:36:06.505Z,20.50
2022-10-12T05:38:36.509Z,21.63
2022-10-12T05:41:04.695Z,19.73
2022-10-12T05:43:32.992Z,17.85
2022-10-12T05:46:01.371Z,16.83
2022-10-12T05:48:29.523Z,17.05
2022-10-12T05:50:57.632Z,17.73
2022-10-12T05:53:25.835Z,17.20
2022-10-12T05:55:57.057Z,16.17
2022-10-12T05:58:26.251Z,16.02
2022-10-12T06:00:54.753Z,15.70
2022-10-12T06:03:26.150Z,16.27
2022-10-12T06:05:54.562Z,17.65
2022-10-12T06:08:22.670Z,16.40
2022-10-12T06:10:52.358Z,16.15
2022-10-12T06:13:22.105Z,19.58
2022-10-12T06:15:50.778Z,18.60
2022-10-12T06:18:19.279Z,18.63
2022-10-12T06:20:49.387Z,19.27
2022-10-12T06:23:17.477Z,19.33
2022-10-12T06:25:48.024Z,20.88
2022-10-12T06:28:16.479Z,22.23
2022-10-12T06:30:46.081Z,20.25
2022-10-12T06:33:14.180Z,20.90
2022-10-12T06:35:42.237Z,20.70
2022-10-12T06:38:10.356Z,21.15
2022-10-12T06:40:38.718Z,19.30
2022-10-12T06:43:06.875Z,20.38
2022-10-12T06:45:35.371Z,19.00
2022-10-12T06:48:31.606Z,20.88
2022-10-12T06:50:59.737Z,18.98
2022-10-12T06:53:28.870Z,20.52
2022-10-12T06:55:56.978Z,20.42
2022-10-12T06:58:25.441Z,19.90
2022-10-12T07:00:53.659Z,21.63
2022-10-12T07:03:21.929Z,20.23
2022-10-12T07:05:51.371Z,21.17
2022-10-12T07:08:19.476Z,20.85
2022-10-12T07:10:47.724Z,20.40
2022-10-12T07:13:15.981Z,19.50
2022-10-12T07:15:50.418Z,18.42
2022-10-12T07:18:18.540Z,22.88
2022-10-12T07:20:55.141Z,20.05
2022-10-12T07:23:23.284Z,19.35
2022-10-12T07:25:52.180Z,20.23
2022-10-12T07:28:21.901Z,19.95
2022-10-12T07:30:51.027Z,17.35
2022-10-12T07:33:19.352Z,19.80
2022-10-12T07:36:13.285Z,18.67
2022-10-12T07:38:45.385Z,19.85
2022-10-12T07:41:14.605Z,19.70
2022-10-12T07:43:43.965Z,20.67
2022-10-12T07:46:12.897Z,20.30
2022-10-12T07:48:47.196Z,22.77
2022-10-12T07:51:34.478Z,24.70
2022-10-12T07:54:02.555Z,24.95
2022-10-12T07:56:31.031Z,24.23
2022-10-12T07:58:59.481Z,25.80
2022-10-12T08:01:30.387Z,23.58
2022-10-12T08:04:01.427Z,25.10
2022-10-12T08:06:31.835Z,25.23
2022-10-12T08:09:02.832Z,21.17
2022-10-12T08:11:31.091Z,25.08
2022-10-12T08:13:59.195Z,21.70
2022-10-12T08:16:27.548Z,22.85
2022-10-12T08:18:55.743Z,21.45
2022-10-12T08:21:24.107Z,20.27
2022-10-12T08:23:52.279Z,19.08
2022-10-12T08:26:21.772Z,18.58
2022-10-12T08:28:49.839Z,19.33
2022-10-12T08:31:19.461Z,17.75
2022-10-12T08:33:47.771Z,19.38
2022-10-12T08:36:17.133Z,20.40
2022-10-12T08:38:48.602Z,17.35
2022-10-12T08:41:41.487Z,19.58
2022-10-12T08:44:42.807Z,16.88
2022-10-12T08:47:17.027Z,19.67
2022-10-12T08:49:49.897Z,19.20
2022-10-12T08:52:28.676Z,18.38
2022-10-12T08:55:29.988Z,19.35
2022-10-12T08:57:59.825Z,17.95
2022-10-12T09:00:40.196Z,16.38
2022-10-12T09:03:19.475Z,20.15
2022-10-12T09:05:55.438Z,15.85
2022-10-12T09:08:35.443Z,17.10
2022-10-12T09:11:51.574Z,17.20
2022-10-12T09:14:25.894Z,18.33
2022-10-12T09:16:56.800Z,20.38
2022-10-12T09:19:30.834Z,22.13
2022-10-12T09:21:59.300Z,21.50
2022-10-12T09:24:32.311Z,18.25
2022-10-12T09:27:01.609Z,16.73
2022-10-12T09:29:32.682Z,20.88
2022-10-12T09:32:22.205Z,18.92
2022-10-12T09:34:51.068Z,16.23
2022-10-12T09:37:21.805Z,16.30
2022-10-12T09:40:00.219Z,16.90
2022-10-12T09:42:28.379Z,18.65
2022-10-12T09:45:03.805Z,22.40
2022-10-12T09:47:34.359Z,21.00
2022-10-12T09:50:05.821Z,18.60
2022-10-12T09:52:43.981Z,19.10
2022-10-12T09:55:25.214Z,18.42
2022-10-12T09:57:56.640Z,18.98
2022-10-12T10:00:29.171Z,18.75
2022-10-12T10:02:58.673Z,17.02
2022-10-12T10:05:28.675Z,15.88
2022-10-12T10:08:18.444Z,18.23
2022-10-12T10:10:51.005Z,15.93
2022-10-12T10:13:20.934Z,15.73
2022-10-12T10:15:53.505Z,13.70
2022-10-12T10:18:26.961Z,14.82
2022-10-12T10:20:58.141Z,15.60
2022-10-12T10:23:28.294Z,16.65
2022-10-12T10:25:58.706Z,16.00
2022-10-12T10:28:30.584Z,14.13
2022-10-12T10:31:03.241Z,12.85
2022-10-12T10:33:32.738Z,12.73
2022-10-12T10:36:13.961Z,12.50
2022-10-12T10:38:56.746Z,15.05
2022-10-12T10:41:28.565Z,15.43
2022-10-12T10:43:56.956Z,12.60
2022-10-12T10:46:47.501Z,12.90
2022-10-12T10:49:26.979Z,11.40
2022-10-12T10:51:58.602Z,9.98
2022-10-12T10:54:30.593Z,10.57
2022-10-12T10:57:03.053Z,11.48
2022-10-12T10:59:42.062Z,11.63
2022-10-12T11:02:23.073Z,10.13
2022-10-12T11:04:54.609Z,11.10
2022-10-12T11:07:28.829Z,13.48
2022-10-12T11:10:00.427Z,11.02
2022-10-12T11:12:32.357Z,11.15
2022-10-12T11:15:09.183Z,11.27
2022-10-12T11:17:43.626Z,13.38
2022-10-12T11:20:35.659Z,10.15
2022-10-12T11:23:11.878Z,11.20
2022-10-12T11:25:49.197Z,13.13
2022-10-12T11:28:18.145Z,11.82
2022-10-12T11:30:50.559Z,10.38
2022-10-12T11:33:24.279Z,11.20
2022-10-12T11:35:54.334Z,9.95
2022-10-12T11:38:30.138Z,11.07
2022-10-12T11:41:31.123Z,11.77
2022-10-12T11:43:57.125Z,10.30
2022-10-12T11:46:38.226Z,11.10
2022-10-12T11:49:15.617Z,9.82
2022-10-12T11:51:49.080Z,11.88
2022-10-12T11:54:26.090Z,12.05
2022-10-12T11:56:59.216Z,10.98
2022-10-12T11:59:35.799Z,10.05
2022-10-12T12:02:13.108Z,10.30
2022-10-12T12:04:45.908Z,8.57
2022-10-12T12:07:41.024Z,9.25
2022-10-12T12:10:45.809Z,9.20
2022-10-12T12:13:24.079Z,8.35
2022-10-12T12:16:34.441Z,11.05
2022-10-12T12:19:16.054Z,11.27
2022-10-12T12:22:24.574Z,9.30
2022-10-12T12:25:04.288Z,9.48
2022-10-12T12:27:37.428Z,10.25
2022-10-12T12:30:22.006Z,10.48
2022-10-12T12:32:53.677Z,10.05
2022-10-12T12:35:25.914Z,9.20
2022-10-12T12:38:08.803Z,9.45
2022-10-12T12:40:40.068Z,8.40
2022-10-12T12:44:01.406Z,9.95
2022-10-12T12:50:01.396Z,10.18
2022-10-12T12:52:32.975Z,9.65
2022-10-12T12:55:23.309Z,9.90
2022-10-12T12:58:14.799Z,9.75
2022-10-12T13:00:55.476Z,12.48
2022-10-12T13:03:50.630Z,10.27
2022-10-12T13:07:12.704Z,8.05
2022-10-12T13:10:03.222Z,8.70
2022-10-12T13:12:50.206Z,10.27
2022-10-12T13:15:34.398Z,8.85
2022-10-12T13:18:28.580Z,11.35
2022-10-12T13:21:07.955Z,8.98
2022-10-12T13:23:36.772Z,8.82
2022-10-12T13:26:09.568Z,10.00
2022-10-12T13:28:43.602Z,9.15
2022-10-12T13:31:20.355Z,8.70
2022-10-12T13:33:57.279Z,12.50
2022-10-12T13:36:28.471Z,11.15
2022-10-12T13:39:07.970Z,9.93
2022-10-12T13:41:36.779Z,9.95
2022-10-12T13:44:06.998Z,11.75
2022-10-12T13:46:42.345Z,11.45
2022-10-12T13:49:15.373Z,9.88
2022-10-12T13:51:46.718Z,10.40
2022-10-12T13:54:21.595Z,12.32
2022-10-12T13:56:54.104Z,9.60
2022-10-12T13:59:25.682Z,9.38
2022-10-12T14:02:00.603Z,9.50
2022-10-12T14:04:31.057Z,8.82
2022-10-12T14:07:03.960Z,9.35
2022-10-12T14:09:42.573Z,9.82
2022-10-12T14:12:12.795Z,10.30
2022-10-12T14:14:44.312Z,8.95
2022-10-12T14:17:17.570Z,10.00
2022-10-12T14:19:47.961Z,10.60
2022-10-12T14:22:22.609Z,11.25
2022-10-12T14:24:51.842Z,8.77
2022-10-12T14:27:24.220Z,7.50
2022-10-12T14:29:57.409Z,7.60
2022-10-12T14:32:42.472Z,7.45
2022-10-12T14:35:28.203Z,9.50
2022-10-12T14:37:57.710Z,10.50
2022-10-12T14:40:33.041Z,9.60
2022-10-12T14:43:08.017Z,9.68
2022-10-12T14:45:36.935Z,8.00
2022-10-12T14:48:12.791Z,9.82
2022-10-12T14:50:40.907Z,8.70
2022-10-12T14:53:12.862Z,8.00
2022-10-12T14:55:41.728Z,8.77
2022-10-12T14:58:15.832Z,8.63
2022-10-12T15:00:45.202Z,11.95
2022-10-12T15:03:14.800Z,10.02
2022-10-12T15:05:42.982Z,9.55
2022-10-12T15:08:11.108Z,7.72
2022-10-12T15:10:39.571Z,7.82
2022-10-12T15:13:19.784Z,6.95
2022-10-12T15:15:49.393Z,7.63
2022-10-12T15:18:19.103Z,7.78
2022-10-12T15:20:49.829Z,8.50
2022-10-12T15:23:18.192Z,7.65
2022-10-12T15:25:51.062Z,6.95
2022-10-12T15:28:25.219Z,7.85
2022-10-12T15:33:43.843Z,7.55
2022-10-12T15:36:12.131Z,7.47
2022-10-12T15:38:40.432Z,7.45
2022-10-12T15:41:17.148Z,7.07
2022-10-12T15:44:12.565Z,7.28
2022-10-12T15:46:41.334Z,6.40
2022-10-12T15:49:10.954Z,6.50
2022-10-12T15:51:42.160Z,6.22
2022-10-12T15:54:11.082Z,7.63
2022-10-12T15:56:39.436Z,6.90
2022-10-12T15:59:08.007Z,6.35
2022-10-12T16:01:37.771Z,7.03
2022-10-12T16:04:07.555Z,6.80
2022-10-12T16:06:37.228Z,6.43
2022-10-12T16:09:05.330Z,6.32
2022-10-12T16:11:33.663Z,5.93
2022-10-12T16:14:01.878Z,6.45
2022-10-12T16:16:41.814Z,6.78
2022-10-12T16:19:09.915Z,6.05
2022-10-12T16:21:39.475Z,6.43
2022-10-12T16:24:08.846Z,6.10
2022-10-12T16:26:40.310Z,6.55
2022-10-12T16:29:11.233Z,6.05
2022-10-12T16:31:40.415Z,6.18
2022-10-12T16:34:14.537Z,5.55
2022-10-12T16:36:44.037Z,6.22
2022-10-12T16:39:12.491Z,7.25
2022-10-12T16:41:40.604Z,7.07
2022-10-12T16:44:08.748Z,5.80
2022-10-12T16:46:38.023Z,6.15
2022-10-12T16:49:06.423Z,5.63
2022-10-12T16:51:34.806Z,5.95
2022-10-12T16:54:04.852Z,5.95
2022-10-12T16:56:37.090Z,6.18
2022-10-12T16:59:07.695Z,6.78
2022-10-12T17:01:35.904Z,8.20
2022-10-12T17:04:04.079Z,13.32
2022-10-12T17:06:32.377Z,15.55
2022-10-12T17:09:01.113Z,13.43
2022-10-12T17:11:30.745Z,9.70
2022-10-12T17:18:42.461Z,6.88
2022-10-12T17:21:13.496Z,5.95
2022-10-12T17:23:44.148Z,6.30
2022-10-12T17:26:12.600Z,6.40
2022-10-12T17:28:42.384Z,6.95
2022-10-12T17:31:11.900Z,6.85
2022-10-12T17:33:40.616Z,6.55
2022-10-12T17:36:15.143Z,6.00
2022-10-12T17:38:46.623Z,7.03
2022-10-12T17:41:20.524Z,6.95
2022-10-12T17:43:55.496Z,6.90
2022-10-12T17:46:28.631Z,7.65
2022-10-12T17:49:00.408Z,6.75
2022-10-12T17:51:35.173Z,6.63
2022-10-12T17:54:11.117Z,7.93
2022-10-12T17:56:46.026Z,7.50
2022-10-12T17:59:25.163Z,7.80
2022-10-12T18:02:05.152Z,8.57
2022-10-12T18:04:44.340Z,8.57
2022-10-12T18:07:17.664Z,8.38
2022-10-12T18:09:50.692Z,7.75
2022-10-12T18:12:25.699Z,7.57
2022-10-12T18:14:59.179Z,7.78
2022-10-12T18:17:34.621Z,8.65
2022-10-12T18:20:08.109Z,9.15
2022-10-12T18:22:43.503Z,8.35
2022-10-12T18:25:20.324Z,8.00
2022-10-12T18:27:55.420Z,9.80
2022-10-12T18:30:29.429Z,9.95
2022-10-12T18:33:04.077Z,8.88
2022-10-12T18:35:41.121Z,10.30
2022-10-12T18:38:17.939Z,11.10
2022-10-12T18:40:49.649Z,10.15
2022-10-12T18:43:23.330Z,10.90
2022-10-12T18:45:59.903Z,10.60
2022-10-12T18:48:32.620Z,10.45
2022-10-12T18:51:06.756Z,10.50
2022-10-12T18:53:39.050Z,10.02
2022-10-12T18:56:14.484Z,11.05
2022-10-12T18:58:45.579Z,10.00
2022-10-12T19:01:22.002Z,9.35
2022-10-12T19:03:53.189Z,9.35
2022-10-12T19:06:26.048Z,11.25
2022-10-12T19:08:58.275Z,10.70
2022-10-12T19:11:31.347Z,10.15
2022-10-12T19:14:04.193Z,10.60
2022-10-12T19:16:39.887Z,10.73
2022-10-12T19:19:21.459Z,10.82
2022-10-12T19:21:54.799Z,11.15
2022-10-12T19:24:28.262Z,11.10
2022-10-12T19:26:59.843Z,10.20
2022-10-12T19:29:32.385Z,10.93
2022-10-12T19:32:05.852Z,9.85
2022-10-12T19:34:38.369Z,12.20
2022-10-12T19:37:09.785Z,12.13
2022-10-12T19:39:46.690Z,11.32
2022-10-12T19:42:17.393Z,9.60
2022-10-12T19:44:52.946Z,9.45
2022-10-12T19:47:26.921Z,10.32
2022-10-12T19:49:57.274Z,8.80
2022-10-12T19:52:28.473Z,10.43
2022-10-12T19:55:00.167Z,10.15
2022-10-12T19:57:34.306Z,11.02
2022-10-12T20:00:09.573Z,10.05
2022-10-12T20:02:44.191Z,9.80
2022-10-12T20:05:14.864Z,10.05
2022-10-12T20:07:45.619Z,8.98
2022-10-12T20:10:17.986Z,9.93
2022-10-12T20:12:48.110Z,11.25
2022-10-12T20:15:16.475Z,10.50
2022-10-12T20:17:45.920Z,11.60
2022-10-12T20:20:14.042Z,11.57
2022-10-12T20:22:42.099Z,13.48
2022-10-12T20:25:10.307Z,14.07
2022-10-12T20:27:38.373Z,13.07
2022-10-12T20:30:07.752Z,13.70
2022-10-12T20:32:36.093Z,14.15
2022-10-12T20:35:06.735Z,14.13
2022-10-12T20:37:35.622Z,13.57
2022-10-12T20:40:04.068Z,15.55
2022-10-12T20:42:32.490Z,14.15
2022-10-12T20:45:00.459Z,16.15
2022-10-12T20:47:28.539Z,15.88
2022-10-12T20:49:56.651Z,15.52
2022-10-12T20:52:26.314Z,14.70
2022-10-12T20:54:54.338Z,13.40
2022-10-12T20:57:22.384Z,14.80
2022-10-12T20:59:50.464Z,15.32
2022-10-12T21:02:19.452Z,15.20
2022-10-12T21:04:49.720Z,14.50
2022-10-12T21:07:19.194Z,15.55
2022-10-12T21:09:48.677Z,14.27
2022-10-12T21:12:17.103Z,14.95
2022-10-12T21:14:45.718Z,15.20
2022-10-12T21:17:13.738Z,15.15
2022-10-12T21:19:41.805Z,16.08
2022-10-12T21:22:09.927Z,16.73
2022-10-12T21:24:37.933Z,15.63
2022-10-12T21:27:18.759Z,14.75
2022-10-12T21:29:46.825Z,16.45
2022-10-12T21:32:15.124Z,16.52
2022-10-12T21:34:43.217Z,14.52
2022-10-12T21:37:11.684Z,15.70
2022-10-12T21:39:39.659Z,14.15
2022-10-12T21:42:07.911Z,15.45
2022-10-12T21:44:37.495Z,15.48
2022-10-12T21:47:05.944Z,17.15
2022-10-12T21:49:36.879Z,14.48
2022-10-12T21:52:05.266Z,16.95
2022-10-12T21:54:33.335Z,16.95
2022-10-12T21:57:01.456Z,15.63
2022-10-12T21:59:29.995Z,15.77
2022-10-12T22:01:59.661Z,16.50
2022-10-12T22:04:27.731Z,15.23
2022-10-12T22:07:00.317Z,15.38
2022-10-12T22:09:28.869Z,16.27
2022-10-12T22:11:56.832Z,17.08
2022-10-12T22:14:24.841Z,15.18
2022-10-12T22:16:53.050Z,15.52
2022-10-12T22:19:22.766Z,16.05
2022-10-12T22:21:52.996Z,15.50
2022-10-12T22:24:21.570Z,16.83
2022-10-12T22:26:49.808Z,15.05
2022-10-12T22:29:20.628Z,15.10
2022-10-12T22:31:48.646Z,16.15
2022-10-12T22:34:16.799Z,14.68
2022-10-12T22:36:46.284Z,15.25
2022-10-12T22:39:14.549Z,15.35
2022-10-12T22:41:45.462Z,15.02
2022-10-12T22:44:13.461Z,15.50
2022-10-12T22:46:41.579Z,17.02
2022-10-12T22:49:09.616Z,16.88
2022-10-12T22:51:40.212Z,18.98
2022-10-12T22:54:11.095Z,17.77
2022-10-12T22:56:42.692Z,17.13
2022-10-12T22:59:14.803Z,18.02
2022-10-12T23:01:42.816Z,16.73
2022-10-12T23:04:11.091Z,18.20
2022-10-12T23:06:39.189Z,18.35
2022-10-12T23:09:07.281Z,18.38
2022-10-12T23:11:37.268Z,17.65
2022-10-12T23:14:05.208Z,18.27
2022-10-12T23:16:34.002Z,16.60
2022-10-12T23:19:04.881Z,19.75
2022-10-12T23:21:34.537Z,18.63
2022-10-12T23:24:05.074Z,16.60
2022-10-12T23:26:33.655Z,19.73
2022-10-12T23:29:03.380Z,19.98
2022-10-12T23:31:32.171Z,19.83
2022-10-12T23:34:03.524Z,18.90
2022-10-12T23:36:32.772Z,20.60
2022-10-12T23:39:01.172Z,20.60
2022-10-12T23:41:29.338Z,19.60
2022-10-12T23:43:57.918Z,20.52
2022-10-12T23:46:27.354Z,20.80
2022-10-12T23:48:58.639Z,21.35
2022-10-12T23:51:26.911Z,22.23
2022-10-12T23:53:55.236Z,21.90
2022-10-12T23:56:23.939Z,21.98
2022-10-12T23:58:52.690Z,21.08
